Time;durP1;ratioP1;P1;durP2;ratioP2;P2;SDS_P1;SDS_P2;PMS_P1;PMS_P2;Temp;Humidity;BMP_temperature;BMP_pressure;BME280_temperature;BME280_humidity;BME280_pressure;Samples;Min_cycle;Max_cycle;Signal;HPM_P1;HPM_P2
2022/10/28 00:00:51;;;;;;;13.50;6.28;;;;;;;16.34;66.72;97449.13;4941655;29;20281;-76
2022/10/28 00:03:19;;;;;;;13.98;6.15;;;;;;;16.29;66.72;97451.56;4941078;29;20063;-75
2022/10/28 00:05:46;;;;;;;10.88;5.43;;;;;;;16.23;66.75;97442.59;4941454;29;20062;-78
2022/10/28 00:08:14;;;;;;;12.20;5.70;;;;;;;16.18;66.76;97449.47;4941164;29;20123;-76
2022/10/28 00:10:41;;;;;;;8.68;4.72;;;;;;;16.13;66.89;97450.03;4940378;29;20077;-76
2022/10/28 00:13:09;;;;;;;9.57;4.65;;;;;;;16.09;67.09;97440.13;4940311;29;20524;-78
2022/10/28 00:15:36;;;;;;;13.82;5.28;;;;;;;16.03;67.16;97442.53;4940155;29;20067;-77
2022/10/28 00:18:05;;;;;;;9.45;5.47;;;;;;;15.98;67.35;97438.84;4939684;29;20055;-76
2022/10/28 00:20:33;;;;;;;16.02;4.78;;;;;;;15.92;67.56;97445.72;4940584;29;20048;-75
2022/10/28 00:23:00;;;;;;;8.68;4.85;;;;;;;15.90;67.55;97450.38;4940035;29;20403;-78
2022/10/28 00:25:28;;;;;;;9.32;5.40;;;;;;;15.84;67.64;97438.78;4940401;29;20059;-76
2022/10/28 00:27:56;;;;;;;9.68;5.53;;;;;;;15.80;67.83;97440.19;4939712;29;20069;-77
2022/10/28 00:30:23;;;;;;;10.95;5.78;;;;;;;15.76;68.00;97438.13;4940703;29;20063;-77
2022/10/28 00:32:52;;;;;;;15.98;4.95;;;;;;;15.72;68.25;97445.63;4940472;29;20494;-79
2022/10/28 00:35:23;;;;;;;9.70;5.57;;;;;;;15.69;68.24;97445.16;4939252;29;20079;-76
2022/10/28 00:37:52;;;;;;;8.63;4.57;;;;;;;15.64;68.43;97438.66;4940383;29;20056;-76
2022/10/28 00:40:20;;;;;;;10.68;5.07;;;;;;;15.61;68.40;97435.56;4940802;29;20051;-75
2022/10/28 00:42:47;;;;;;;9.00;5.18;;;;;;;15.60;68.10;97442.66;4940783;29;20052;-77
2022/10/28 00:45:15;;;;;;;13.02;5.05;;;;;;;15.59;68.33;97441.06;4941200;29;20059;-76
2022/10/28 00:47:50;;;;;;;10.35;4.88;;;;;;;15.60;68.57;97442.66;4939872;29;20051;-77
2022/10/28 00:50:39;;;;;;;10.82;5.07;;;;;;;15.63;68.28;97452.81;4940045;29;20047;-76
2022/10/28 00:53:11;;;;;;;14.43;4.88;;;;;;;15.65;68.35;97453.44;4938917;29;20055;-76
2022/10/28 00:55:38;;;;;;;12.32;4.45;;;;;;;15.68;67.98;97444.34;4942831;29;20054;-78
2022/10/28 00:58:08;;;;;;;10.80;4.72;;;;;;;15.70;67.80;97444.13;4943114;29;20075;-79
2022/10/28 01:00:36;;;;;;;10.30;5.00;;;;;;;15.70;67.73;97447.59;4943424;29;20048;-79
2022/10/28 01:03:03;;;;;;;7.88;4.25;;;;;;;15.70;67.88;97450.22;4942578;29;20047;-77
2022/10/28 01:05:36;;;;;;;8.20;4.90;;;;;;;15.74;68.68;97442.78;4942975;29;20043;-77
2022/10/28 01:08:05;;;;;;;8.38;4.72;;;;;;;15.74;67.67;97442.78;4942937;29;20056;-76
2022/10/28 01:10:48;;;;;;;8.32;4.07;;;;;;;15.76;67.75;97441.56;4942875;29;20428;-78
2022/10/28 01:13:24;;;;;;;8.23;4.43;;;;;;;15.76;67.43;97440.75;4942853;29;20062;-78
2022/10/28 01:15:59;;;;;;;6.00;3.67;;;;;;;15.76;67.27;97432.88;4943279;29;20059;-77
2022/10/28 01:18:35;;;;;;;7.93;3.83;;;;;;;15.75;67.10;97433.88;4943065;29;20056;-77
2022/10/28 01:21:39;;;;;;;7.35;4.53;;;;;;;15.75;67.12;97418.09;4943077;29;20044;-77
2022/10/28 01:24:30;;;;;;;9.98;3.97;;;;;;;15.74;67.17;97417.31;4941953;29;20052;-77
2022/10/28 01:27:34;;;;;;;7.85;4.03;;;;;;;15.74;67.03;97411.19;4942473;29;20066;-75
2022/10/28 01:30:12;;;;;;;8.52;4.03;;;;;;;15.72;66.66;97407.94;4940442;29;20047;-76
2022/10/28 01:33:02;;;;;;;8.32;3.95;;;;;;;15.72;66.80;97410.59;4942321;29;20066;-77
2022/10/28 01:35:35;;;;;;;11.70;3.97;;;;;;;15.71;66.30;97408.94;4943127;29;20120;-78
2022/10/28 01:38:22;;;;;;;7.35;4.38;;;;;;;15.70;66.43;97415.19;4942157;29;20056;-77
2022/10/28 01:40:56;;;;;;;11.20;4.55;;;;;;;15.70;66.47;97404.66;4943109;29;20058;-76
2022/10/28 01:43:29;;;;;;;8.65;4.90;;;;;;;15.72;66.56;97415.84;4943164;29;20054;-77
2022/10/28 01:46:03;;;;;;;6.82;3.45;;;;;;;15.72;66.70;97413.22;4943046;29;20056;-78
2022/10/28 01:48:36;;;;;;;8.98;3.50;;;;;;;15.74;66.52;97416.47;4942635;29;20055;-77
2022/10/28 01:51:15;;;;;;;7.22;3.30;;;;;;;15.75;66.29;97412.84;4943015;29;20078;-77
2022/10/28 01:53:47;;;;;;;7.75;3.95;;;;;;;15.76;67.09;97424.97;4943323;29;20051;-77
2022/10/28 01:56:18;;;;;;;8.55;3.53;;;;;;;15.80;67.12;97420.97;4942584;29;20055;-78
2022/10/28 01:58:48;;;;;;;4.78;3.10;;;;;;;15.82;66.44;97419.75;4943611;29;20111;-78
2022/10/28 02:01:17;;;;;;;9.27;4.00;;;;;;;15.84;66.61;97416.94;4945320;29;20059;-76
2022/10/28 02:03:47;;;;;;;7.38;3.28;;;;;;;15.88;66.95;97417.38;4945022;29;20056;-79
2022/10/28 02:06:19;;;;;;;8.30;3.40;;;;;;;15.90;67.02;97424.06;4944866;29;20056;-77
2022/10/28 02:08:57;;;;;;;6.40;3.60;;;;;;;15.90;66.69;97420.63;4936087;29;20059;-77
2022/10/28 02:11:57;;;;;;;7.50;3.42;;;;;;;15.89;65.76;97419.78;4925471;29;20059;-77
2022/10/28 02:14:45;;;;;;;6.90;3.88;;;;;;;15.88;65.46;97423.44;4942808;29;20047;-79
2022/10/28 02:17:21;;;;;;;7.90;4.15;;;;;;;15.85;65.27;97413.28;4944034;29;20054;-77
2022/10/28 02:19:58;;;;;;;8.25;4.05;;;;;;;15.77;65.35;97416.09;4943812;29;20044;-76
2022/10/28 02:22:30;;;;;;;8.48;3.67;;;;;;;15.72;65.28;97410.59;4943457;29;20052;-77
2022/10/28 02:25:07;;;;;;;10.47;4.13;;;;;;;15.66;65.54;97405.06;4944189;29;20062;-77
2022/10/28 02:27:39;;;;;;;7.72;3.55;;;;;;;15.61;65.35;97399.59;4943195;29;20341;-76
2022/10/28 02:30:12;;;;;;;6.72;4.00;;;;;;;15.55;65.64;97403.00;4943641;29;20051;-77
2022/10/28 02:32:44;;;;;;;8.90;3.50;;;;;;;15.53;65.70;97407.63;4942223;29;20417;-76
2022/10/28 02:35:17;;;;;;;7.87;3.50;;;;;;;15.53;65.91;97410.25;4942501;29;20071;-77
2022/10/28 02:37:48;;;;;;;7.60;4.38;;;;;;;15.53;65.82;97405.00;4958192;23;20055;-78
2022/10/28 02:40:21;;;;;;;10.48;3.33;;;;;;;15.51;65.93;97406.19;4938623;29;20044;-77
2022/10/28 02:42:50;;;;;;;;;;;;;;;15.52;65.35;97405.19;4938816;29;20066;-78
2022/10/28 02:45:21;;;;;;;8.90;3.70;;;;;;;15.47;65.64;97403.13;4937971;29;20029;-77
2022/10/28 02:47:54;;;;;;;9.23;3.47;;;;;;;15.46;65.61;97406.78;4937888;29;20060;-77
2022/10/28 02:50:31;;;;;;;8.30;3.30;;;;;;;15.44;65.80;97403.53;4937909;29;20561;-78
2022/10/28 02:53:01;;;;;;;9.52;3.83;;;;;;;15.46;65.68;97404.16;4938234;29;20446;-77
2022/10/28 02:55:34;;;;;;;8.73;2.92;;;;;;;15.47;65.52;97402.34;4937797;29;20056;-78
2022/10/28 02:58:02;;;;;;;11.63;3.63;;;;;;;15.44;65.48;97406.97;4937703;29;20525;-78
2022/10/28 03:00:29;;;;;;;7.32;3.92;;;;;;;15.43;65.76;97401.91;4937680;29;20048;-78
2022/10/28 03:02:57;;;;;;;8.32;3.50;;;;;;;15.44;65.44;97401.72;4937852;29;20048;-78
2022/10/28 03:05:26;;;;;;;5.18;3.17;;;;;;;15.41;65.62;97401.28;4937485;29;20502;-78
2022/10/28 03:07:53;;;;;;;10.85;3.25;;;;;;;15.37;65.43;97395.59;4937221;29;20062;-78
2022/10/28 03:10:21;;;;;;;9.32;3.45;;;;;;;15.36;65.29;97398.41;4937176;29;20072;-77
2022/10/28 03:12:49;;;;;;;8.40;3.90;;;;;;;15.35;65.68;97402.03;4937914;29;20055;-77
2022/10/28 03:15:16;;;;;;;6.13;3.60;;;;;;;15.34;65.61;97401.22;4937568;29;20075;-78
2022/10/28 03:17:44;;;;;;;9.60;3.10;;;;;;;15.33;65.52;97388.31;4937395;29;20078;-79
2022/10/28 03:20:12;;;;;;;8.90;3.70;;;;;;;15.30;65.46;97394.72;4937372;29;20054;-78
2022/10/28 03:22:42;;;;;;;7.90;2.95;;;;;;;15.27;65.59;97391.69;4937883;29;20056;-78
2022/10/28 03:25:10;;;;;;;9.52;3.70;;;;;;;15.25;65.51;97397.13;4937646;29;20051;-78
2022/10/28 03:27:39;;;;;;;11.52;4.30;;;;;;;15.24;65.64;97395.53;4937179;29;20063;-78
2022/10/28 03:30:07;;;;;;;6.45;3.28;;;;;;;15.23;65.76;97399.94;4937174;29;20057;-78
2022/10/28 03:32:35;;;;;;;9.40;3.08;;;;;;;15.23;65.76;97393.88;4937689;29;20048;-78
2022/10/28 03:35:03;;;;;;;8.90;3.72;;;;;;;15.24;65.62;97385.00;4937524;29;20050;-78
2022/10/28 03:37:30;;;;;;;10.75;3.25;;;;;;;15.25;65.51;97379.53;4936890;29;20474;-78
2022/10/28 03:40:01;;;;;;;10.75;4.25;;;;;;;15.25;65.43;97384.00;4937300;29;20050;-78
2022/10/28 03:42:29;;;;;;;9.02;3.50;;;;;;;15.27;65.72;97387.25;4929713;29;20052;-77
2022/10/28 03:44:56;;;;;;;10.55;3.25;;;;;;;15.29;65.54;97381.81;4920822;29;20119;-78
2022/10/28 03:47:24;;;;;;;10.13;4.15;;;;;;;15.29;65.55;97381.81;4936884;29;20511;-78
2022/10/28 03:49:51;;;;;;;11.38;3.08;;;;;;;15.31;65.59;97382.41;4937094;29;20502;-77
2022/10/28 03:52:19;;;;;;;8.50;3.35;;;;;;;15.33;65.81;97385.69;4937310;29;20122;-78
2022/10/28 03:54:46;;;;;;;7.38;3.53;;;;;;;15.35;65.46;97392.34;4936771;29;20062;-77
2022/10/28 03:57:15;;;;;;;9.98;3.42;;;;;;;15.36;65.47;97382.66;4937029;29;20434;-78
2022/10/28 03:59:43;;;;;;;9.75;2.78;;;;;;;15.39;65.44;97382.25;4944555;29;20051;-78
2022/10/28 04:02:10;;;;;;;10.93;3.42;;;;;;;15.40;65.13;97384.69;4949324;29;20058;-78
2022/10/28 04:04:38;;;;;;;7.10;3.10;;;;;;;15.43;65.46;97378.22;4943955;29;20055;-78
2022/10/28 04:07:06;;;;;;;13.88;3.83;;;;;;;15.43;65.15;97389.56;4936246;29;20403;-79
2022/10/28 04:09:33;;;;;;;10.90;3.17;;;;;;;15.41;65.25;97381.06;4936413;29;20051;-78
2022/10/28 04:12:01;;;;;;;7.10;3.78;;;;;;;15.43;65.15;97381.66;4936915;29;20046;-78
2022/10/28 04:14:30;;;;;;;8.13;3.47;;;;;;;15.46;65.21;97383.13;4936963;29;20262;-77
2022/10/28 04:16:58;;;;;;;9.35;2.92;;;;;;;15.49;65.25;97384.56;4936060;29;20039;-78
2022/10/28 04:19:26;;;;;;;6.45;3.33;;;;;;;15.51;65.13;97385.16;4936358;29;20059;-78
2022/10/28 04:21:53;;;;;;;9.63;3.38;;;;;;;15.50;64.90;97386.97;4935436;29;20044;-78
2022/10/28 04:24:21;;;;;;;9.00;3.00;;;;;;;15.51;65.11;97380.72;4936379;29;20171;-77
2022/10/28 04:26:48;;;;;;;11.02;2.83;;;;;;;15.51;64.92;97385.97;4935985;29;20054;-78
2022/10/28 04:29:16;;;;;;;13.15;3.95;;;;;;;15.49;64.88;97382.72;4935813;29;20055;-77
2022/10/28 04:31:45;;;;;;;9.10;2.90;;;;;;;15.52;65.20;97392.03;4936298;29;20044;-78
2022/10/28 04:34:18;;;;;;;6.97;3.55;;;;;;;15.53;64.79;97391.84;4932928;29;20056;-78
2022/10/28 04:36:46;;;;;;;8.77;3.40;;;;;;;15.54;64.63;97390.03;4948339;29;20047;-78
2022/10/28 04:39:13;;;;;;;12.10;4.72;;;;;;;15.52;64.55;97395.47;4957467;29;20062;-78
2022/10/28 04:41:41;;;;;;;8.35;4.13;;;;;;;15.50;64.51;97389.59;4939386;29;20509;-78
2022/10/28 04:44:08;;;;;;;7.03;3.22;;;;;;;15.49;64.57;97387.97;4917541;29;20059;-77
2022/10/28 04:46:36;;;;;;;13.90;3.80;;;;;;;15.48;64.75;97383.75;4920246;29;20098;-77
2022/10/28 04:49:05;;;;;;;9.05;4.18;;;;;;;15.47;64.58;97387.38;4935877;29;20051;-76
2022/10/28 04:51:32;;;;;;;9.73;3.47;;;;;;;15.47;64.63;97384.72;4934842;29;20561;-76
2022/10/28 04:54:00;;;;;;;9.05;3.95;;;;;;;15.47;64.77;97384.72;4935517;29;20056;-77
2022/10/28 04:56:29;;;;;;;13.77;3.78;;;;;;;15.45;64.75;97392.00;4935670;29;20062;-78
2022/10/28 04:58:57;;;;;;;13.38;4.35;;;;;;;15.44;64.99;97385.13;4937049;29;20058;-77
2022/10/28 05:01:25;;;;;;;10.70;4.78;;;;;;;15.44;65.27;97398.28;4938924;29;20103;-79
2022/10/28 05:03:53;;;;;;;12.18;3.80;;;;;;;15.43;65.10;97392.19;4936702;29;20047;-79
2022/10/28 05:12:54;;;;;;;10.80;4.63;;;;;;;15.51;65.08;97401.75;5161249;23;20138;-76
2022/10/28 05:15:22;;;;;;;7.82;3.45;;;;;;;15.55;65.38;97413.50;4938689;29;20056;-77
2022/10/28 05:17:50;;;;;;;10.55;4.03;;;;;;;15.56;65.00;97414.31;4936908;29;20495;-79
2022/10/28 05:20:20;;;;;;;11.07;4.53;;;;;;;15.58;64.75;97399.97;4932085;29;20528;-78
2022/10/28 05:22:49;;;;;;;13.77;4.35;;;;;;;15.60;64.93;97378.75;4917387;29;20056;-80
2022/10/28 05:25:19;;;;;;;7.40;3.45;;;;;;;15.59;65.12;97351.63;4916995;29;20060;-79
2022/10/28 05:27:47;;;;;;;10.55;4.30;;;;;;;15.58;65.29;97346.56;4917024;29;20052;-80
2022/10/28 05:30:16;;;;;;;11.52;4.93;;;;;;;15.55;65.38;97344.34;4917053;29;20063;-80
2022/10/28 05:32:44;;;;;;;8.98;4.20;;;;;;;15.53;65.39;97341.91;4916378;29;20135;-81
2022/10/28 05:35:16;;;;;;;8.77;5.13;;;;;;;15.51;65.46;97349.16;4917193;29;20051;-80
2022/10/28 05:37:44;;;;;;;11.07;6.32;;;;;;;15.51;65.15;97351.00;4916698;29;20062;-80
2022/10/28 05:40:12;;;;;;;13.35;6.55;;;;;;;15.50;64.90;97359.88;4917002;29;20052;-80
2022/10/28 05:42:42;;;;;;;13.70;5.75;;;;;;;15.51;64.84;97359.69;4917213;29;20052;-80
2022/10/28 05:45:10;;;;;;;15.05;5.55;;;;;;;15.54;64.75;97375.06;4917410;29;20495;-80
2022/10/28 05:48:03;;;;;;;10.98;5.13;;;;;;;15.56;64.86;97366.97;4916613;29;20052;-80
2022/10/28 05:50:49;;;;;;;9.90;4.45;;;;;;;15.58;64.72;97371.03;4916970;29;20119;-80
2022/10/28 05:53:45;;;;;;;12.32;4.03;;;;;;;15.61;64.61;97370.66;4917555;29;20422;-80
2022/10/28 06:12:46;;;;;;;10.40;2.88;;;;;;;15.82;63.30;97392.63;5109041;23;20099;-80
2022/10/28 06:15:14;;;;;;;6.20;3.08;;;;;;;15.84;63.24;97383.53;4935584;29;20048;-80
2022/10/28 06:17:42;;;;;;;7.07;3.13;;;;;;;15.88;62.96;97397.13;4935773;29;20056;-80
2022/10/28 06:20:13;;;;;;;7.35;3.00;;;;;;;15.92;62.90;97405.41;4935665;29;20131;-79
2022/10/28 06:22:47;;;;;;;7.13;3.58;;;;;;;15.94;62.82;97392.88;4935650;29;20062;-80
2022/10/28 06:25:15;;;;;;;7.10;3.03;;;;;;;15.96;62.65;97410.13;4935563;29;20047;-79
2022/10/28 06:27:43;;;;;;;6.53;3.50;;;;;;;15.98;62.67;97397.59;4935722;29;20126;-80
2022/10/28 06:30:13;;;;;;;9.20;3.00;;;;;;;15.99;62.46;97409.72;4936006;29;20059;-80
2022/10/28 06:32:41;;;;;;;11.40;3.45;;;;;;;16.01;62.44;97399.00;4935977;29;20051;-80
2022/10/28 06:35:09;;;;;;;6.32;3.10;;;;;;;16.01;62.25;97389.28;4935906;29;20079;-79
2022/10/28 06:37:37;;;;;;;16.25;3.92;;;;;;;16.01;62.55;97360.34;4935842;29;20060;-78
2022/10/28 06:40:06;;;;;;;11.85;4.40;;;;;;;16.02;62.52;97364.56;4935783;29;20058;-80
2022/10/28 06:42:34;;;;;;;8.07;3.30;;;;;;;16.04;62.15;97364.38;4935416;29;20429;-79
2022/10/28 06:45:03;;;;;;;10.40;4.07;;;;;;;16.04;62.13;97365.19;4937729;29;20139;-80
2022/10/28 06:47:32;;;;;;;10.50;3.92;;;;;;;16.04;62.19;97374.91;4939220;29;20426;-79
2022/10/28 06:50:06;;;;;;;11.70;3.85;;;;;;;16.04;62.26;97380.19;4939017;29;20071;-79
2022/10/28 06:53:25;;;;;;;10.82;4.40;;;;;;;16.04;61.68;97380.97;4939271;29;20055;-80
2022/10/28 07:28:38;;;;;;;6.63;2.60;;;;;;;16.51;59.04;97420.63;4917571;29;20127;-80
2022/10/28 07:31:06;;;;;;;3.67;2.33;;;;;;;16.56;59.10;97425.28;4919454;29;20135;-80
2022/10/28 07:33:34;;;;;;;10.93;3.33;;;;;;;16.63;59.03;97426.09;4919252;29;20048;-80
2022/10/28 07:46:14;;;;;;;8.63;2.58;;;;;;;16.93;57.81;97436.31;5181215;23;20082;-79
2022/10/28 07:48:42;;;;;;;7.43;2.53;;;;;;;16.97;57.88;97437.56;4938188;29;20052;-79
2022/10/28 07:51:12;;;;;;;4.50;2.05;;;;;;;17.02;57.80;97435.13;4937895;29;20134;-80
2022/10/28 07:53:41;;;;;;;6.93;2.85;;;;;;;17.08;57.82;97429.03;4937950;29;20528;-80
2022/10/28 07:56:12;;;;;;;6.57;2.30;;;;;;;17.15;57.68;97427.22;4938422;29;20067;-79
2022/10/28 07:58:41;;;;;;;7.63;3.00;;;;;;;17.23;57.27;97428.81;4941116;29;20051;-79
2022/10/28 08:01:11;;;;;;;5.80;2.63;;;;;;;17.30;56.76;97417.25;4949519;29;20075;-80
2022/10/28 08:03:40;;;;;;;5.18;2.60;;;;;;;17.39;56.42;97424.97;4945812;29;20084;-80
2022/10/28 08:06:11;;;;;;;14.70;2.80;;;;;;;17.48;56.86;97426.38;4938401;29;20617;-80
2022/10/28 08:08:40;;;;;;;5.75;2.17;;;;;;;17.54;56.18;97422.09;4938616;29;20094;-78
2022/10/28 08:11:11;;;;;;;10.52;3.33;;;;;;;17.64;56.04;97415.38;4937565;29;20573;-80
2022/10/28 08:13:39;;;;;;;5.27;2.87;;;;;;;17.76;55.95;97417.38;4938271;29;20079;-79
2022/10/28 08:25:09;;;;;;;7.13;3.30;;;;;;;18.40;54.81;97419.19;4919995;29;20075;-79
2022/10/28 09:22:16;;;;;;;7.13;3.05;;;;;;;18.96;52.91;97427.38;5373407;23;20052;-79
2022/10/28 09:28:10;;;;;;;10.13;3.92;;;;;;;18.90;52.99;97437.00;5126521;23;20052;-78
2022/10/28 09:55:30;;;;;;;9.75;3.67;;;;;;;19.90;51.41;97465.28;5157790;23;20043;-79
2022/10/28 15:24:40;;;;;;;5.22;2.30;;;;;;;22.55;50.93;97329.22;4861731;29;20061;-80
2022/10/28 15:27:18;;;;;;;7.07;2.38;;;;;;;22.49;50.79;97324.88;4863387;29;20144;-80
2022/10/28 15:29:59;;;;;;;10.40;3.15;;;;;;;22.40;50.73;97321.78;4863518;29;20064;-80
2022/10/28 15:44:48;;;;;;;7.70;2.70;;;;;;;22.05;51.82;97335.22;5283458;23;20537;-80
2022/10/28 15:47:25;;;;;;;9.82;3.42;;;;;;;21.98;51.80;97324.75;4919505;29;20079;-80
2022/10/28 15:50:02;;;;;;;7.63;3.13;;;;;;;21.93;52.29;97337.94;4921036;29;20063;-78
2022/10/28 16:33:11;;;;;;;8.15;3.53;;;;;;;21.13;54.36;97355.31;5988302;23;21861;-80
2022/10/28 16:40:01;;;;;;;9.73;3.60;;;;;;;21.05;54.60;97338.94;4877758;29;20044;-80
2022/10/28 16:43:04;;;;;;;9.40;3.65;;;;;;;21.02;54.94;97339.44;4896412;29;20057;-80
2022/10/28 16:45:42;;;;;;;7.05;3.67;;;;;;;20.96;55.23;97344.59;4888521;29;20080;-80
2022/10/28 16:51:21;;;;;;;7.72;3.75;;;;;;;20.86;55.38;97344.38;4888708;29;20060;-79
2022/10/28 16:56:46;;;;;;;9.52;3.50;;;;;;;20.78;55.66;97331.44;4886438;29;20053;-79
2022/10/28 17:00:15;;;;;;;8.23;3.30;;;;;;;20.74;55.74;97335.59;4887902;29;20053;-79
2022/10/28 17:02:49;;;;;;;6.40;3.97;;;;;;;20.68;56.02;97341.78;4889383;29;20061;-78
2022/10/28 17:05:23;;;;;;;10.15;3.97;;;;;;;20.64;56.27;97341.47;4887356;29;20135;-78
2022/10/28 17:07:54;;;;;;;6.60;3.25;;;;;;;20.60;56.18;97340.28;4895200;29;20052;-78
2022/10/28 17:10:25;;;;;;;10.77;3.83;;;;;;;20.56;56.22;97342.56;4886210;29;20056;-78
2022/10/28 17:12:56;;;;;;;8.48;4.22;;;;;;;20.53;56.62;97343.00;4880126;29;20064;-78
2022/10/28 17:15:26;;;;;;;11.27;3.63;;;;;;;20.50;56.66;97340.81;4879901;29;20504;-78
2022/10/28 17:17:56;;;;;;;7.60;4.15;;;;;;;20.48;56.69;97344.72;4862897;29;20560;-78
2022/10/28 17:20:28;;;;;;;9.77;3.50;;;;;;;20.45;56.95;97343.34;4893381;29;20072;-79
2022/10/28 17:23:00;;;;;;;11.43;3.75;;;;;;;20.44;56.77;97335.59;4898003;29;20575;-79
2022/10/28 17:25:29;;;;;;;9.63;3.05;;;;;;;20.41;56.92;97331.56;4897602;29;20056;-78
2022/10/28 17:28:00;;;;;;;5.25;3.28;;;;;;;20.42;56.96;97338.47;4898084;29;20053;-78
2022/10/28 17:30:31;;;;;;;7.38;2.80;;;;;;;20.40;56.99;97319.38;4897678;29;20147;-78
2022/10/28 17:33:07;;;;;;;11.13;4.55;;;;;;;20.37;56.91;97325.91;4897340;29;20052;-79
2022/10/28 17:35:43;;;;;;;8.13;3.08;;;;;;;20.35;57.28;97325.31;4897550;29;20060;-77
2022/10/28 17:38:14;;;;;;;7.00;3.22;;;;;;;20.31;57.48;97337.44;4897976;29;20396;-79
2022/10/28 17:40:53;;;;;;;9.23;3.60;;;;;;;20.28;57.54;97331.75;4897718;29;20515;-78
2022/10/28 17:43:26;;;;;;;6.90;3.53;;;;;;;20.26;57.42;97339.13;4897758;29;20052;-78
2022/10/28 17:46:04;;;;;;;8.50;3.67;;;;;;;20.23;57.69;97340.38;4897969;29;20049;-78
2022/10/28 17:48:34;;;;;;;7.47;3.25;;;;;;;20.21;57.83;97341.66;4897656;29;20057;-78
2022/10/28 17:51:06;;;;;;;9.70;4.65;;;;;;;20.17;57.87;97342.09;4897286;29;20628;-78
2022/10/28 17:53:39;;;;;;;7.65;3.30;;;;;;;20.15;57.94;97352.09;4897127;29;20063;-77
2022/10/28 17:56:10;;;;;;;7.55;3.53;;;;;;;20.11;58.24;97342.97;4897594;29;20450;-78
2022/10/28 17:58:40;;;;;;;11.35;3.95;;;;;;;20.09;57.80;97352.97;4897659;29;20049;-78
2022/10/28 18:01:15;;;;;;;11.20;3.70;;;;;;;20.08;57.91;97354.03;4881600;29;20084;-78
2022/10/28 18:03:45;;;;;;;9.68;3.40;;;;;;;20.06;57.95;97350.78;4897599;29;20138;-78
2022/10/28 18:06:16;;;;;;;6.55;3.92;;;;;;;20.05;58.02;97362.44;4897935;29;20067;-78
2022/10/28 18:08:46;;;;;;;4.85;2.78;;;;;;;20.03;57.86;97361.84;4897384;29;20065;-78
2022/10/28 18:11:19;;;;;;;6.93;2.95;;;;;;;20.03;58.03;97371.59;4897692;29;20053;-78
2022/10/28 18:13:51;;;;;;;11.23;3.85;;;;;;;20.03;58.04;97368.97;4897689;29;20051;-78
2022/10/28 18:16:26;;;;;;;10.68;5.15;;;;;;;20.02;58.18;97370.81;4896240;29;20076;-77
2022/10/28 18:18:58;;;;;;;11.27;3.95;;;;;;;20.02;58.04;97372.66;4897494;29;20104;-79
2022/10/28 18:21:30;;;;;;;10.13;3.53;;;;;;;20.01;57.96;97363.09;4897135;29;20148;-78
2022/10/28 18:24:04;;;;;;;14.80;3.80;;;;;;;20.00;58.06;97372.88;4897474;29;20464;-78
2022/10/28 18:26:35;;;;;;;10.02;3.47;;;;;;;19.97;57.93;97368.03;4897353;29;20089;-79
2022/10/28 18:29:11;;;;;;;10.43;3.63;;;;;;;19.94;57.78;97369.28;4897018;29;20117;-77
2022/10/28 18:31:43;;;;;;;9.82;3.72;;;;;;;19.93;57.94;97374.78;4897698;29;20055;-78
2022/10/28 18:34:15;;;;;;;14.68;3.97;;;;;;;19.90;58.04;97373.41;4897265;29;20135;-78
2022/10/28 18:36:47;;;;;;;8.90;3.13;;;;;;;19.89;58.31;97360.38;4897395;29;20052;-78
2022/10/28 18:39:20;;;;;;;;;;;;;;;19.90;57.70;97356.72;4897109;29;20057;-79
2022/10/28 18:41:54;;;;;;;7.25;3.40;;;;;;;19.86;57.90;97360.84;4899879;29;19930;-79
2022/10/28 18:44:30;;;;;;;11.90;3.80;;;;;;;19.81;58.22;97353.56;4890399;29;20051;-78
2022/10/28 18:47:00;;;;;;;6.32;3.42;;;;;;;19.80;58.39;97361.72;4900632;29;20120;-78
2022/10/28 18:49:32;;;;;;;7.45;3.40;;;;;;;19.74;58.57;97363.41;4882252;29;20053;-77
2022/10/28 18:52:08;;;;;;;12.13;3.85;;;;;;;19.71;58.44;97359.38;4887103;29;20052;-79
2022/10/28 18:54:40;;;;;;;12.02;3.80;;;;;;;19.69;58.15;97361.44;4880001;29;20519;-78
2022/10/28 18:57:12;;;;;;;10.68;3.33;;;;;;;19.67;58.24;97368.75;4886530;29;20052;-79
2022/10/28 18:59:51;;;;;;;10.38;3.38;;;;;;;19.67;58.18;97379.31;4900657;29;20060;-78
2022/10/28 19:02:41;;;;;;;;;;;;;;;19.66;57.97;97377.72;4900788;29;20203;-79
2022/10/28 19:05:18;;;;;;;11.32;3.88;;;;;;;19.63;58.19;97380.00;4900550;29;20342;-77
2022/10/28 19:07:55;;;;;;;10.30;3.40;;;;;;;19.56;58.51;97375.56;4900219;29;20051;-79
2022/10/28 19:10:25;;;;;;;11.07;3.88;;;;;;;19.51;58.69;97364.84;4900755;29;20060;-78
2022/10/28 19:13:06;;;;;;;11.13;3.38;;;;;;;19.47;58.96;97368.16;4900750;29;20147;-78
2022/10/28 19:16:06;;;;;;;9.82;4.03;;;;;;;19.43;58.97;97366.97;4913599;29;20056;-79
2022/10/28 19:18:42;;;;;;;9.20;3.67;;;;;;;19.40;58.88;97362.13;4911183;29;20436;-79
2022/10/28 19:21:13;;;;;;;10.40;3.92;;;;;;;19.37;59.02;97358.06;4904479;29;20291;-77
2022/10/28 19:23:44;;;;;;;11.88;3.90;;;;;;;19.37;59.12;97365.19;4900636;29;20075;-76
2022/10/28 19:26:14;;;;;;;16.53;3.77;;;;;;;19.34;58.96;97364.59;4900352;29;20053;-77
2022/10/28 19:28:45;;;;;;;8.25;3.33;;;;;;;19.33;58.77;97373.59;4900497;29;20111;-77
2022/10/28 19:31:16;;;;;;;11.60;3.22;;;;;;;19.30;58.97;97365.25;4900780;29;20044;-77
2022/10/28 19:33:45;;;;;;;10.48;4.10;;;;;;;19.28;59.22;97367.31;4904567;29;20074;-77
2022/10/28 19:36:18;;;;;;;8.73;3.53;;;;;;;19.26;59.43;97369.38;4904530;29;20071;-77
2022/10/28 19:38:52;;;;;;;7.93;3.97;;;;;;;19.22;59.32;97366.38;4902229;29;20075;-77
2022/10/28 19:41:27;;;;;;;12.52;3.78;;;;;;;19.19;59.57;97366.78;4900514;29;20100;-77
2022/10/28 19:43:58;;;;;;;16.63;4.20;;;;;;;19.16;59.53;97371.72;4900212;29;20057;-78
2022/10/28 19:46:29;;;;;;;9.27;3.58;;;;;;;19.14;59.59;97374.59;4899215;29;20140;-78
2022/10/28 19:49:01;;;;;;;12.10;3.67;;;;;;;19.12;59.56;97361.56;4899533;29;20135;-78
2022/10/28 19:51:34;;;;;;;9.63;3.85;;;;;;;19.12;59.64;97361.56;4899100;29;20055;-78
2022/10/28 19:54:16;;;;;;;7.25;3.15;;;;;;;19.12;59.65;97371.34;4885488;29;20148;-78
2022/10/28 19:56:46;;;;;;;6.50;3.33;;;;;;;19.13;59.48;97362.38;4880962;29;20556;-82
2022/10/28 19:59:17;;;;;;;9.73;3.40;;;;;;;19.11;59.23;97375.00;4892050;29;20104;-78
2022/10/28 20:01:52;;;;;;;6.68;3.00;;;;;;;19.07;59.40;97365.91;4899214;29;20284;-78
2022/10/28 20:04:21;;;;;;;8.57;3.47;;;;;;;19.06;59.29;97367.72;4899750;29;20056;-78
2022/10/28 20:06:50;;;;;;;12.25;3.30;;;;;;;19.05;59.09;97375.88;4898844;29;20060;-77
2022/10/28 20:09:21;;;;;;;9.95;3.58;;;;;;;19.01;59.24;97374.69;4898114;29;20081;-77
2022/10/28 20:11:56;;;;;;;7.88;2.80;;;;;;;18.98;59.41;97369.81;4898783;29;20542;-78
2022/10/28 20:14:25;;;;;;;9.07;3.08;;;;;;;18.94;59.64;97372.91;4898604;29;20052;-78
2022/10/28 20:16:54;;;;;;;9.02;3.05;;;;;;;18.89;59.65;97372.75;4890541;29;20400;-78
2022/10/28 20:19:23;;;;;;;14.90;3.58;;;;;;;18.85;59.64;97368.94;4880813;29;20053;-77
2022/10/28 20:21:53;;;;;;;8.77;3.70;;;;;;;18.82;59.82;97366.69;4899004;29;20041;-78
2022/10/28 20:24:25;;;;;;;11.88;4.07;;;;;;;18.79;59.93;97372.41;4898546;29;20057;-78
2022/10/28 20:26:54;;;;;;;14.18;3.65;;;;;;;18.73;59.93;97371.41;4898196;29;20064;-78
2022/10/28 20:29:22;;;;;;;8.30;3.60;;;;;;;18.69;60.11;97367.59;4898920;29;20060;-78
2022/10/28 20:31:54;;;;;;;12.48;4.00;;;;;;;18.64;60.23;97371.91;4898925;29;20517;-78
2022/10/28 20:34:24;;;;;;;8.27;3.65;;;;;;;18.61;60.09;97372.34;4898464;29;20088;-76
2022/10/28 20:36:53;;;;;;;11.18;3.17;;;;;;;18.58;60.24;97372.75;4898408;29;20080;-78
